createdAt,value
2018-10-21T00:02:36.970Z,10.70
2018-10-21T00:07:40.695Z,10.60
2018-10-21T00:12:44.313Z,10.60
2018-10-21T00:17:48.007Z,10.50
2018-10-21T00:22:51.666Z,10.50
2018-10-21T00:27:55.350Z,10.40
2018-10-21T00:32:59.022Z,10.30
2018-10-21T00:38:02.598Z,10.20
2018-10-21T00:43:06.218Z,10.10
2018-10-21T00:48:09.833Z,10.00
2018-10-21T00:53:13.455Z,9.90
2018-10-21T00:58:17.078Z,9.90
2018-10-21T01:03:20.706Z,9.90
2018-10-21T01:08:24.378Z,9.80
2018-10-21T01:13:28.094Z,9.70
2018-10-21T01:18:31.723Z,9.70
2018-10-21T01:23:35.364Z,9.70
2018-10-21T01:28:38.990Z,9.70
2018-10-21T01:33:42.722Z,9.60
2018-10-21T01:38:46.343Z,9.50
2018-10-21T01:43:49.957Z,9.60
2018-10-21T01:48:53.558Z,9.70
2018-10-21T01:53:57.246Z,9.80
2018-10-21T01:59:00.890Z,9.80
2018-10-21T02:04:04.831Z,9.80
2018-10-21T02:09:08.523Z,9.70
2018-10-21T02:14:12.169Z,9.40
2018-10-21T02:19:15.730Z,9.40
2018-10-21T02:24:19.460Z,9.40
2018-10-21T02:29:23.190Z,9.30
2018-10-21T02:34:27.003Z,9.40
2018-10-21T02:39:30.627Z,9.50
2018-10-21T02:44:34.256Z,9.50
2018-10-21T02:49:37.950Z,9.50
2018-10-21T02:54:41.566Z,9.50
2018-10-21T02:59:45.284Z,9.50
2018-10-21T03:04:49.110Z,9.40
2018-10-21T03:09:52.742Z,9.40
2018-10-21T03:14:56.459Z,9.20
2018-10-21T03:20:00.064Z,9.10
2018-10-21T03:25:03.713Z,9.10
2018-10-21T03:30:07.327Z,9.10
2018-10-21T03:35:10.947Z,8.90
2018-10-21T03:40:14.667Z,8.80
2018-10-21T03:45:18.372Z,8.80
2018-10-21T03:50:21.995Z,8.90
2018-10-21T03:55:25.685Z,9.00
2018-10-21T04:00:29.336Z,9.00
2018-10-21T04:05:33.260Z,8.90
2018-10-21T04:10:36.859Z,8.80
2018-10-21T04:15:40.558Z,8.80
2018-10-21T04:20:44.172Z,8.80
2018-10-21T04:25:47.908Z,8.70
2018-10-21T04:30:51.527Z,8.60
2018-10-21T04:35:55.237Z,8.40
2018-10-21T04:40:58.885Z,8.50
2018-10-21T04:46:02.572Z,8.40
2018-10-21T04:51:06.178Z,8.40
2018-10-21T04:56:09.883Z,8.20
2018-10-21T05:01:13.531Z,8.10
2018-10-21T05:06:17.179Z,8.10
2018-10-21T05:11:20.835Z,8.20
2018-10-21T05:16:24.513Z,8.10
2018-10-21T05:21:28.090Z,8.00
2018-10-21T05:26:31.701Z,7.90
2018-10-21T05:31:35.648Z,7.80
2018-10-21T05:36:39.248Z,7.90
2018-10-21T05:41:42.866Z,8.00
2018-10-21T05:46:47.769Z,8.00
2018-10-21T05:51:51.958Z,7.90
2018-10-21T05:56:55.564Z,7.90
2018-10-21T06:01:59.191Z,7.80
2018-10-21T06:07:02.813Z,8.00
2018-10-21T06:12:07.270Z,8.10
2018-10-21T06:17:13.634Z,8.10
2018-10-21T06:22:17.430Z,8.10
2018-10-21T06:27:20.988Z,8.10
2018-10-21T06:32:24.668Z,8.30
2018-10-21T06:37:28.224Z,8.20
2018-10-21T06:42:31.839Z,8.20
2018-10-21T06:47:35.728Z,8.20
2018-10-21T06:52:39.355Z,8.20
2018-10-21T06:57:43.763Z,8.40
2018-10-21T07:02:47.327Z,8.50
2018-10-21T07:07:51.339Z,8.60
2018-10-21T07:12:54.970Z,8.80
2018-10-21T07:17:58.598Z,9.10
2018-10-21T07:23:02.292Z,9.30
2018-10-21T07:28:06.001Z,9.50
2018-10-21T07:33:09.618Z,9.70
2018-10-21T07:38:13.275Z,9.90
2018-10-21T07:43:16.874Z,10.00
2018-10-21T07:48:20.574Z,10.20
2018-10-21T07:53:24.298Z,10.40
2018-10-21T07:58:27.970Z,10.60
2018-10-21T08:03:31.638Z,11.00
2018-10-21T08:08:35.344Z,11.50
2018-10-21T08:13:38.914Z,11.70
2018-10-21T08:18:42.555Z,11.50
2018-10-21T08:23:46.209Z,11.70
2018-10-21T08:28:49.818Z,12.20
2018-10-21T08:33:53.535Z,12.50
2018-10-21T08:38:57.082Z,13.00
2018-10-21T08:44:00.777Z,14.00
2018-10-21T08:49:04.723Z,14.70
2018-10-21T08:54:08.319Z,15.10
2018-10-21T08:59:11.935Z,14.70
2018-10-21T09:04:15.681Z,15.10
2018-10-21T09:09:19.282Z,14.60
2018-10-21T09:14:22.925Z,14.70
2018-10-21T09:19:26.550Z,15.00
2018-10-21T09:24:30.222Z,14.40
2018-10-21T09:29:34.005Z,14.20
2018-10-21T09:34:37.667Z,14.60
2018-10-21T09:39:41.647Z,14.80
2018-10-21T09:44:45.718Z,15.10
2018-10-21T09:49:49.460Z,14.90
2018-10-21T09:54:53.152Z,14.90
2018-10-21T09:59:56.925Z,15.50
2018-10-21T10:05:00.722Z,17.00
2018-10-21T10:10:04.649Z,19.80
2018-10-21T10:15:08.748Z,19.10
2018-10-21T10:20:12.431Z,19.70
2018-10-21T10:25:16.124Z,19.40
2018-10-21T10:30:19.684Z,20.90
2018-10-21T10:35:23.387Z,21.60
2018-10-21T10:40:27.009Z,21.40
2018-10-21T10:45:30.747Z,22.20
2018-10-21T10:50:34.424Z,21.00
2018-10-21T10:55:43.702Z,21.10
2018-10-21T11:00:47.479Z,21.60
2018-10-21T11:05:51.150Z,20.30
2018-10-21T11:10:56.479Z,20.50
2018-10-21T11:16:02.469Z,23.30
2018-10-21T11:21:08.500Z,22.90
2018-10-21T11:26:12.362Z,23.10
2018-10-21T11:31:16.045Z,24.30
2018-10-21T11:36:19.683Z,24.50
2018-10-21T11:41:23.466Z,25.20
2018-10-21T11:46:27.197Z,27.60
2018-10-21T11:51:30.894Z,30.00
2018-10-21T11:56:37.395Z,28.60
2018-10-21T12:01:41.241Z,28.40
2018-10-21T12:06:45.029Z,27.90
2018-10-21T12:11:49.342Z,26.60
2018-10-21T12:16:53.037Z,24.00
2018-10-21T12:21:56.717Z,23.10
2018-10-21T12:27:00.361Z,22.40
2018-10-21T12:32:03.946Z,21.60
2018-10-21T12:37:07.578Z,20.20
2018-10-21T12:42:11.175Z,19.10
2018-10-21T12:47:14.861Z,18.40
2018-10-21T12:52:18.451Z,17.90
2018-10-21T12:57:22.106Z,17.60
2018-10-21T13:02:25.987Z,17.40
2018-10-21T13:07:29.580Z,17.50
2018-10-21T13:12:33.197Z,17.70
2018-10-21T13:17:36.907Z,16.80
2018-10-21T13:22:40.523Z,16.70
2018-10-21T13:27:44.164Z,16.70
2018-10-21T13:32:47.809Z,16.80
2018-10-21T13:37:51.677Z,16.90
2018-10-21T13:42:55.310Z,16.70
2018-10-21T13:47:58.952Z,16.70
2018-10-21T13:53:02.738Z,17.40
2018-10-21T13:58:06.393Z,17.80
2018-10-21T14:03:09.975Z,17.90
2018-10-21T14:08:13.594Z,17.20
2018-10-21T14:13:17.304Z,16.70
2018-10-21T14:18:20.895Z,16.30
2018-10-21T14:23:24.526Z,16.30
2018-10-21T14:28:28.190Z,16.20
2018-10-21T14:33:31.939Z,16.30
2018-10-21T14:38:35.686Z,16.30
2018-10-21T14:43:39.235Z,16.30
2018-10-21T14:48:42.858Z,16.50
2018-10-21T14:53:46.464Z,16.20
2018-10-21T14:58:50.092Z,16.30
2018-10-21T15:03:53.771Z,16.70
2018-10-21T15:08:57.403Z,17.60
2018-10-21T15:14:01.059Z,18.40
2018-10-21T15:19:04.770Z,20.10
2018-10-21T15:24:08.385Z,21.00
2018-10-21T15:29:12.035Z,21.80
2018-10-21T15:34:15.776Z,21.40
2018-10-21T15:39:19.342Z,19.50
2018-10-21T15:44:22.967Z,17.60
2018-10-21T15:49:26.633Z,17.00
2018-10-21T15:54:30.987Z,16.50
2018-10-21T15:59:34.634Z,16.20
2018-10-21T16:04:38.323Z,15.80
2018-10-21T16:09:41.970Z,15.50
2018-10-21T16:14:45.596Z,15.10
2018-10-21T16:19:49.397Z,14.80
2018-10-21T16:24:52.930Z,14.50
2018-10-21T16:29:56.569Z,14.30
2018-10-21T16:35:00.175Z,14.00
2018-10-21T16:40:03.787Z,13.80
2018-10-21T16:45:08.007Z,13.60
2018-10-21T16:50:13.719Z,13.50
2018-10-21T16:55:17.975Z,13.30
2018-10-21T17:00:21.802Z,13.20
2018-10-21T17:05:25.366Z,13.10
2018-10-21T17:10:29.349Z,13.00
2018-10-21T17:15:33.416Z,12.80
2018-10-21T17:20:37.266Z,12.70
2018-10-21T17:25:40.975Z,12.60
2018-10-21T17:30:44.858Z,12.50
2018-10-21T17:35:48.520Z,12.40
2018-10-21T17:40:52.124Z,12.30
2018-10-21T17:45:55.851Z,12.20
2018-10-21T17:50:59.490Z,12.20
2018-10-21T17:56:03.098Z,12.10
2018-10-21T18:01:06.767Z,12.00
2018-10-21T18:06:10.682Z,11.90
2018-10-21T18:11:14.426Z,11.90
2018-10-21T18:16:18.241Z,11.80
2018-10-21T18:21:22.543Z,11.70
2018-10-21T18:26:26.544Z,11.60
2018-10-21T18:31:30.516Z,11.50
2018-10-21T18:36:34.401Z,11.40
2018-10-21T18:41:39.650Z,11.50
2018-10-21T18:46:43.649Z,11.40
2018-10-21T18:51:47.441Z,11.30
2018-10-21T18:56:51.167Z,11.20
2018-10-21T19:01:54.807Z,11.10
2018-10-21T19:06:58.466Z,11.10
2018-10-21T19:12:02.051Z,11.10
2018-10-21T19:17:05.665Z,11.00
2018-10-21T19:22:09.304Z,11.00
2018-10-21T19:27:12.984Z,11.00
2018-10-21T19:32:16.539Z,10.90
2018-10-21T19:37:20.322Z,10.90
2018-10-21T19:42:23.982Z,11.00
2018-10-21T19:47:27.606Z,10.90
2018-10-21T19:52:31.243Z,10.80
2018-10-21T19:57:34.926Z,10.80
2018-10-21T20:02:38.554Z,10.70
2018-10-21T20:07:42.215Z,10.70
2018-10-21T20:12:45.938Z,10.60
2018-10-21T20:17:49.547Z,10.60
2018-10-21T20:22:53.214Z,10.50
2018-10-21T20:27:56.974Z,10.50
2018-10-21T20:33:00.729Z,10.40
2018-10-21T20:38:05.290Z,10.30
2018-10-21T20:43:09.100Z,10.20
2018-10-21T20:48:13.026Z,10.20
2018-10-21T20:53:16.751Z,10.20
2018-10-21T20:58:20.411Z,10.10
2018-10-21T21:03:24.034Z,10.10
2018-10-21T21:08:27.778Z,10.10
2018-10-21T21:13:31.437Z,10.10
2018-10-21T21:18:35.095Z,10.00
2018-10-21T21:23:38.713Z,10.00
2018-10-21T21:28:42.335Z,9.90
2018-10-21T21:33:46.102Z,9.90
2018-10-21T21:38:49.747Z,9.80
2018-10-21T21:43:53.391Z,9.80
2018-10-21T21:48:57.110Z,9.80
2018-10-21T21:54:00.758Z,9.80
2018-10-21T21:59:04.590Z,9.70
2018-10-21T22:04:08.335Z,9.80
2018-10-21T22:09:12.831Z,9.70
2018-10-21T22:14:16.460Z,9.70
2018-10-21T22:19:20.227Z,9.70
2018-10-21T22:24:23.862Z,9.70
2018-10-21T22:29:27.598Z,9.60
2018-10-21T22:34:31.337Z,9.60
2018-10-21T22:39:34.949Z,9.60
2018-10-21T22:44:38.654Z,9.60
2018-10-21T22:49:42.264Z,9.60
2018-10-21T22:54:45.899Z,9.70
2018-10-21T22:59:50.347Z,9.70
2018-10-21T23:04:53.974Z,9.80
2018-10-21T23:09:57.629Z,9.80
2018-10-21T23:15:01.194Z,9.80
2018-10-21T23:20:05.767Z,9.80
2018-10-21T23:25:09.454Z,9.70
2018-10-21T23:30:13.123Z,9.60
2018-10-21T23:35:16.695Z,9.70
2018-10-21T23:40:20.324Z,9.80
2018-10-21T23:45:24.023Z,9.80
2018-10-21T23:50:27.689Z,9.70
2018-10-21T23:55:31.360Z,9.60
